sensor_id;sensor_type;location;lat;lon;timestamp;P1;durP1;ratioP1;P2;durP2;ratioP2
4909;SDS011;2470;49.868;8.660;2022-08-14T00:00:33;2.08;;;1.80;;
4909;SDS011;2470;49.868;8.660;2022-08-14T00:02:58;2.50;;;2.30;;
4909;SDS011;2470;49.868;8.660;2022-08-14T00:05:24;2.20;;;1.80;;
4909;SDS011;2470;49.868;8.660;2022-08-14T00:07:50;2.72;;;1.92;;
4909;SDS011;2470;49.868;8.660;2022-08-14T00:10:17;2.25;;;2.05;;
4909;SDS011;2470;49.868;8.660;2022-08-14T00:12:47;1.92;;;1.77;;
4909;SDS011;2470;49.868;8.660;2022-08-14T00:15:19;5.05;;;2.10;;
4909;SDS011;2470;49.868;8.660;2022-08-14T00:17:48;3.20;;;2.88;;
4909;SDS011;2470;49.868;8.660;2022-08-14T00:20:15;3.42;;;2.20;;
4909;SDS011;2470;49.868;8.660;2022-08-14T00:22:41;3.33;;;2.45;;
4909;SDS011;2470;49.868;8.660;2022-08-14T00:25:07;2.78;;;1.85;;
4909;SDS011;2470;49.868;8.660;2022-08-14T00:27:33;4.85;;;2.15;;
4909;SDS011;2470;49.868;8.660;2022-08-14T00:29:59;2.00;;;1.80;;
4909;SDS011;2470;49.868;8.660;2022-08-14T00:32:24;4.53;;;2.00;;
4909;SDS011;2470;49.868;8.660;2022-08-14T00:34:50;2.40;;;2.20;;
4909;SDS011;2470;49.868;8.660;2022-08-14T00:37:15;2.47;;;2.28;;
4909;SDS011;2470;49.868;8.660;2022-08-14T00:39:41;2.88;;;1.90;;
4909;SDS011;2470;49.868;8.660;2022-08-14T00:42:07;2.50;;;1.85;;
4909;SDS011;2470;49.868;8.660;2022-08-14T00:44:33;5.15;;;2.38;;
4909;SDS011;2470;49.868;8.660;2022-08-14T00:47:01;3.15;;;2.00;;
4909;SDS011;2470;49.868;8.660;2022-08-14T00:49:30;2.28;;;2.08;;
4909;SDS011;2470;49.868;8.660;2022-08-14T00:51:56;2.40;;;2.20;;
4909;SDS011;2470;49.868;8.660;2022-08-14T00:54:23;2.30;;;1.80;;
4909;SDS011;2470;49.868;8.660;2022-08-14T00:56:50;4.45;;;2.75;;
4909;SDS011;2470;49.868;8.660;2022-08-14T00:59:16;3.00;;;2.63;;
4909;SDS011;2470;49.868;8.660;2022-08-14T01:01:42;1.70;;;1.60;;
4909;SDS011;2470;49.868;8.660;2022-08-14T01:04:09;3.20;;;2.42;;
4909;SDS011;2470;49.868;8.660;2022-08-14T01:06:35;3.38;;;2.75;;
4909;SDS011;2470;49.868;8.660;2022-08-14T01:09:02;2.90;;;2.60;;
4909;SDS011;2470;49.868;8.660;2022-08-14T01:11:28;4.30;;;2.97;;
4909;SDS011;2470;49.868;8.660;2022-08-14T01:13:55;3.42;;;2.58;;
4909;SDS011;2470;49.868;8.660;2022-08-14T01:16:24;3.33;;;2.72;;
4909;SDS011;2470;49.868;8.660;2022-08-14T01:18:50;2.40;;;2.08;;
4909;SDS011;2470;49.868;8.660;2022-08-14T01:21:39;2.53;;;2.10;;
4909;SDS011;2470;49.868;8.660;2022-08-14T01:24:05;3.45;;;2.75;;
4909;SDS011;2470;49.868;8.660;2022-08-14T01:26:32;2.83;;;2.45;;
4909;SDS011;2470;49.868;8.660;2022-08-14T01:28:59;2.78;;;2.50;;
4909;SDS011;2470;49.868;8.660;2022-08-14T01:31:26;4.15;;;2.50;;
4909;SDS011;2470;49.868;8.660;2022-08-14T01:33:55;3.42;;;2.42;;
4909;SDS011;2470;49.868;8.660;2022-08-14T01:36:25;2.75;;;2.20;;
4909;SDS011;2470;49.868;8.660;2022-08-14T01:38:54;3.55;;;2.60;;
4909;SDS011;2470;49.868;8.660;2022-08-14T01:41:24;2.63;;;2.10;;
4909;SDS011;2470;49.868;8.660;2022-08-14T01:43:55;3.53;;;2.45;;
4909;SDS011;2470;49.868;8.660;2022-08-14T01:46:25;2.75;;;2.08;;
4909;SDS011;2470;49.868;8.660;2022-08-14T01:48:52;3.10;;;2.80;;
4909;SDS011;2470;49.868;8.660;2022-08-14T01:51:19;4.70;;;2.53;;
4909;SDS011;2470;49.868;8.660;2022-08-14T01:53:50;3.10;;;2.47;;
4909;SDS011;2470;49.868;8.660;2022-08-14T01:56:18;4.53;;;2.58;;
4909;SDS011;2470;49.868;8.660;2022-08-14T01:58:45;3.28;;;2.75;;
4909;SDS011;2470;49.868;8.660;2022-08-14T02:01:17;3.10;;;2.33;;
4909;SDS011;2470;49.868;8.660;2022-08-14T02:03:44;6.68;;;3.22;;
4909;SDS011;2470;49.868;8.660;2022-08-14T02:06:11;3.65;;;2.65;;
4909;SDS011;2470;49.868;8.660;2022-08-14T02:08:38;3.38;;;2.47;;
4909;SDS011;2470;49.868;8.660;2022-08-14T02:11:06;4.10;;;2.80;;
4909;SDS011;2470;49.868;8.660;2022-08-14T02:13:59;3.50;;;2.40;;
4909;SDS011;2470;49.868;8.660;2022-08-14T02:16:29;2.58;;;2.38;;
4909;SDS011;2470;49.868;8.660;2022-08-14T02:18:58;4.22;;;2.30;;
4909;SDS011;2470;49.868;8.660;2022-08-14T02:21:25;4.80;;;2.85;;
4909;SDS011;2470;49.868;8.660;2022-08-14T02:23:52;2.97;;;2.50;;
4909;SDS011;2470;49.868;8.660;2022-08-14T02:26:20;3.13;;;2.55;;
4909;SDS011;2470;49.868;8.660;2022-08-14T02:28:49;2.92;;;2.63;;
4909;SDS011;2470;49.868;8.660;2022-08-14T02:31:17;3.97;;;2.92;;
4909;SDS011;2470;49.868;8.660;2022-08-14T02:33:43;4.93;;;3.03;;
4909;SDS011;2470;49.868;8.660;2022-08-14T02:36:09;2.95;;;2.65;;
4909;SDS011;2470;49.868;8.660;2022-08-14T02:38:36;3.38;;;2.90;;
4909;SDS011;2470;49.868;8.660;2022-08-14T02:41:03;3.38;;;2.38;;
4909;SDS011;2470;49.868;8.660;2022-08-14T02:43:32;5.50;;;3.33;;
4909;SDS011;2470;49.868;8.660;2022-08-14T02:45:58;3.38;;;3.08;;
4909;SDS011;2470;49.868;8.660;2022-08-14T02:48:24;3.00;;;2.53;;
4909;SDS011;2470;49.868;8.660;2022-08-14T02:50:55;3.83;;;2.95;;
4909;SDS011;2470;49.868;8.660;2022-08-14T02:53:21;2.95;;;2.40;;
4909;SDS011;2470;49.868;8.660;2022-08-14T02:55:46;3.78;;;2.78;;
4909;SDS011;2470;49.868;8.660;2022-08-14T02:58:12;3.53;;;2.92;;
4909;SDS011;2470;49.868;8.660;2022-08-14T03:00:38;4.57;;;3.55;;
4909;SDS011;2470;49.868;8.660;2022-08-14T03:03:03;2.28;;;2.08;;
4909;SDS011;2470;49.868;8.660;2022-08-14T03:05:29;5.82;;;3.45;;
4909;SDS011;2470;49.868;8.660;2022-08-14T03:08:13;6.70;;;3.75;;
4909;SDS011;2470;49.868;8.660;2022-08-14T03:10:39;6.15;;;2.92;;
4909;SDS011;2470;49.868;8.660;2022-08-14T03:13:05;4.78;;;2.67;;
4909;SDS011;2470;49.868;8.660;2022-08-14T03:15:31;3.45;;;3.15;;
4909;SDS011;2470;49.868;8.660;2022-08-14T03:18:08;4.03;;;3.15;;
4909;SDS011;2470;49.868;8.660;2022-08-14T03:20:35;4.70;;;3.28;;
4909;SDS011;2470;49.868;8.660;2022-08-14T03:23:00;4.53;;;3.33;;
4909;SDS011;2470;49.868;8.660;2022-08-14T03:25:26;3.22;;;2.40;;
4909;SDS011;2470;49.868;8.660;2022-08-14T03:27:55;4.07;;;3.42;;
4909;SDS011;2470;49.868;8.660;2022-08-14T03:30:20;2.97;;;2.67;;
4909;SDS011;2470;49.868;8.660;2022-08-14T03:32:46;3.22;;;2.92;;
4909;SDS011;2470;49.868;8.660;2022-08-14T03:35:11;3.17;;;2.83;;
4909;SDS011;2470;49.868;8.660;2022-08-14T03:37:37;3.40;;;2.88;;
4909;SDS011;2470;49.868;8.660;2022-08-14T03:40:03;3.40;;;2.58;;
4909;SDS011;2470;49.868;8.660;2022-08-14T03:42:30;5.63;;;3.17;;
4909;SDS011;2470;49.868;8.660;2022-08-14T03:44:56;4.15;;;3.38;;
4909;SDS011;2470;49.868;8.660;2022-08-14T03:47:22;4.15;;;3.28;;
4909;SDS011;2470;49.868;8.660;2022-08-14T03:49:49;4.15;;;2.90;;
4909;SDS011;2470;49.868;8.660;2022-08-14T03:52:14;4.70;;;3.33;;
4909;SDS011;2470;49.868;8.660;2022-08-14T03:54:40;7.85;;;4.03;;
4909;SDS011;2470;49.868;8.660;2022-08-14T03:57:06;4.30;;;3.58;;
4909;SDS011;2470;49.868;8.660;2022-08-14T03:59:32;4.93;;;2.78;;
4909;SDS011;2470;49.868;8.660;2022-08-14T04:01:59;4.63;;;3.25;;
4909;SDS011;2470;49.868;8.660;2022-08-14T04:04:28;4.82;;;3.88;;
4909;SDS011;2470;49.868;8.660;2022-08-14T04:06:56;3.63;;;2.85;;
4909;SDS011;2470;49.868;8.660;2022-08-14T04:09:23;4.13;;;3.30;;
4909;SDS011;2470;49.868;8.660;2022-08-14T04:11:49;5.22;;;3.75;;
4909;SDS011;2470;49.868;8.660;2022-08-14T04:14:15;3.55;;;3.13;;
4909;SDS011;2470;49.868;8.660;2022-08-14T04:16:40;5.13;;;3.70;;
4909;SDS011;2470;49.868;8.660;2022-08-14T04:19:11;4.85;;;3.15;;
4909;SDS011;2470;49.868;8.660;2022-08-14T04:21:38;6.03;;;3.38;;
4909;SDS011;2470;49.868;8.660;2022-08-14T04:24:04;5.13;;;3.55;;
4909;SDS011;2470;49.868;8.660;2022-08-14T04:26:30;4.45;;;3.25;;
4909;SDS011;2470;49.868;8.660;2022-08-14T04:28:55;3.53;;;3.20;;
4909;SDS011;2470;49.868;8.660;2022-08-14T04:31:22;5.50;;;3.78;;
4909;SDS011;2470;49.868;8.660;2022-08-14T04:33:48;4.25;;;2.83;;
4909;SDS011;2470;49.868;8.660;2022-08-14T04:36:16;4.03;;;3.22;;
4909;SDS011;2470;49.868;8.660;2022-08-14T04:38:43;3.72;;;3.00;;
4909;SDS011;2470;49.868;8.660;2022-08-14T04:41:27;4.03;;;3.63;;
4909;SDS011;2470;49.868;8.660;2022-08-14T04:44:11;7.28;;;3.72;;
4909;SDS011;2470;49.868;8.660;2022-08-14T04:46:36;10.65;;;5.47;;
4909;SDS011;2470;49.868;8.660;2022-08-14T04:49:03;8.95;;;5.97;;
4909;SDS011;2470;49.868;8.660;2022-08-14T04:51:29;19.90;;;10.27;;
4909;SDS011;2470;49.868;8.660;2022-08-14T04:53:57;21.63;;;10.77;;
4909;SDS011;2470;49.868;8.660;2022-08-14T04:56:23;23.42;;;11.60;;
4909;SDS011;2470;49.868;8.660;2022-08-14T04:58:51;35.75;;;14.80;;
4909;SDS011;2470;49.868;8.660;2022-08-14T05:01:22;33.20;;;14.75;;
4909;SDS011;2470;49.868;8.660;2022-08-14T05:03:49;32.50;;;14.93;;
4909;SDS011;2470;49.868;8.660;2022-08-14T05:06:15;23.13;;;12.45;;
4909;SDS011;2470;49.868;8.660;2022-08-14T05:08:41;21.55;;;10.80;;
4909;SDS011;2470;49.868;8.660;2022-08-14T05:11:07;22.23;;;11.32;;
4909;SDS011;2470;49.868;8.660;2022-08-14T05:13:33;16.30;;;10.38;;
4909;SDS011;2470;49.868;8.660;2022-08-14T05:16:01;20.95;;;9.98;;
4909;SDS011;2470;49.868;8.660;2022-08-14T05:18:29;11.38;;;7.82;;
4909;SDS011;2470;49.868;8.660;2022-08-14T05:20:59;14.00;;;6.85;;
4909;SDS011;2470;49.868;8.660;2022-08-14T05:23:30;14.50;;;7.75;;
4909;SDS011;2470;49.868;8.660;2022-08-14T05:25:57;12.40;;;6.03;;
4909;SDS011;2470;49.868;8.660;2022-08-14T05:28:42;10.93;;;6.47;;
4909;SDS011;2470;49.868;8.660;2022-08-14T05:31:10;9.60;;;5.22;;
4909;SDS011;2470;49.868;8.660;2022-08-14T05:33:38;7.35;;;5.40;;
4909;SDS011;2470;49.868;8.660;2022-08-14T05:36:08;7.07;;;5.03;;
4909;SDS011;2470;49.868;8.660;2022-08-14T05:38:36;6.90;;;4.30;;
4909;SDS011;2470;49.868;8.660;2022-08-14T05:41:11;9.95;;;6.63;;
4909;SDS011;2470;49.868;8.660;2022-08-14T05:43:38;12.13;;;6.22;;
4909;SDS011;2470;49.868;8.660;2022-08-14T05:46:05;8.95;;;6.18;;
4909;SDS011;2470;49.868;8.660;2022-08-14T05:48:31;11.43;;;6.47;;
4909;SDS011;2470;49.868;8.660;2022-08-14T05:50:57;10.40;;;6.13;;
4909;SDS011;2470;49.868;8.660;2022-08-14T05:53:25;15.00;;;6.65;;
4909;SDS011;2470;49.868;8.660;2022-08-14T05:55:52;12.52;;;6.43;;
4909;SDS011;2470;49.868;8.660;2022-08-14T05:58:19;13.48;;;6.43;;
4909;SDS011;2470;49.868;8.660;2022-08-14T06:00:45;13.50;;;7.00;;
4909;SDS011;2470;49.868;8.660;2022-08-14T06:03:15;22.35;;;7.32;;
4909;SDS011;2470;49.868;8.660;2022-08-14T06:05:43;13.00;;;6.55;;
4909;SDS011;2470;49.868;8.660;2022-08-14T06:08:14;13.80;;;5.20;;
4909;SDS011;2470;49.868;8.660;2022-08-14T06:10:46;6.38;;;5.20;;
4909;SDS011;2470;49.868;8.660;2022-08-14T06:13:13;5.80;;;4.28;;
4909;SDS011;2470;49.868;8.660;2022-08-14T06:15:39;5.30;;;4.00;;
4909;SDS011;2470;49.868;8.660;2022-08-14T06:18:05;5.05;;;3.75;;
4909;SDS011;2470;49.868;8.660;2022-08-14T06:20:31;6.93;;;4.57;;
4909;SDS011;2470;49.868;8.660;2022-08-14T06:22:57;5.00;;;3.92;;
4909;SDS011;2470;49.868;8.660;2022-08-14T06:25:23;5.65;;;4.28;;
4909;SDS011;2470;49.868;8.660;2022-08-14T06:27:49;4.10;;;3.70;;
4909;SDS011;2470;49.868;8.660;2022-08-14T06:30:16;4.93;;;3.53;;
4909;SDS011;2470;49.868;8.660;2022-08-14T06:32:45;4.07;;;3.53;;
4909;SDS011;2470;49.868;8.660;2022-08-14T06:35:11;3.40;;;2.90;;
4909;SDS011;2470;49.868;8.660;2022-08-14T06:37:45;4.30;;;3.83;;
4909;SDS011;2470;49.868;8.660;2022-08-14T06:42:48;4.07;;;3.65;;
4909;SDS011;2470;49.868;8.660;2022-08-14T06:45:14;4.13;;;3.58;;
4909;SDS011;2470;49.868;8.660;2022-08-14T06:47:41;4.07;;;2.83;;
4909;SDS011;2470;49.868;8.660;2022-08-14T06:50:10;4.40;;;3.90;;
4909;SDS011;2470;49.868;8.660;2022-08-14T06:52:38;8.93;;;3.45;;
4909;SDS011;2470;49.868;8.660;2022-08-14T06:55:04;4.63;;;3.08;;
4909;SDS011;2470;49.868;8.660;2022-08-14T06:57:49;4.00;;;3.20;;
4909;SDS011;2470;49.868;8.660;2022-08-14T07:00:16;3.22;;;2.92;;
4909;SDS011;2470;49.868;8.660;2022-08-14T07:02:43;4.75;;;3.55;;
4909;SDS011;2470;49.868;8.660;2022-08-14T07:05:28;6.00;;;3.35;;
4909;SDS011;2470;49.868;8.660;2022-08-14T07:08:13;4.28;;;3.30;;
4909;SDS011;2470;49.868;8.660;2022-08-14T07:10:42;3.28;;;2.83;;
4909;SDS011;2470;49.868;8.660;2022-08-14T07:13:11;4.45;;;3.40;;
4909;SDS011;2470;49.868;8.660;2022-08-14T07:15:38;4.07;;;3.30;;
4909;SDS011;2470;49.868;8.660;2022-08-14T07:18:07;3.08;;;2.78;;
4909;SDS011;2470;49.868;8.660;2022-08-14T07:20:33;3.92;;;3.50;;
4909;SDS011;2470;49.868;8.660;2022-08-14T07:23:02;6.93;;;4.03;;
4909;SDS011;2470;49.868;8.660;2022-08-14T07:25:30;3.25;;;2.50;;
4909;SDS011;2470;49.868;8.660;2022-08-14T07:27:57;4.10;;;3.70;;
4909;SDS011;2470;49.868;8.660;2022-08-14T07:30:22;3.58;;;2.88;;
4909;SDS011;2470;49.868;8.660;2022-08-14T07:32:48;3.65;;;3.10;;
4909;SDS011;2470;49.868;8.660;2022-08-14T07:35:14;4.05;;;2.88;;
4909;SDS011;2470;49.868;8.660;2022-08-14T07:37:40;5.75;;;3.85;;
4909;SDS011;2470;49.868;8.660;2022-08-14T07:40:06;3.13;;;2.83;;
4909;SDS011;2470;49.868;8.660;2022-08-14T07:42:32;5.47;;;3.47;;
4909;SDS011;2470;49.868;8.660;2022-08-14T07:44:58;3.65;;;3.28;;
4909;SDS011;2470;49.868;8.660;2022-08-14T07:47:24;4.03;;;3.63;;
4909;SDS011;2470;49.868;8.660;2022-08-14T07:49:53;5.07;;;3.28;;
4909;SDS011;2470;49.868;8.660;2022-08-14T07:52:24;4.60;;;3.70;;
4909;SDS011;2470;49.868;8.660;2022-08-14T07:54:50;5.45;;;3.15;;
4909;SDS011;2470;49.868;8.660;2022-08-14T07:57:16;4.93;;;3.47;;
4909;SDS011;2470;49.868;8.660;2022-08-14T07:59:42;4.22;;;3.30;;
4909;SDS011;2470;49.868;8.660;2022-08-14T08:02:09;4.28;;;3.28;;
4909;SDS011;2470;49.868;8.660;2022-08-14T08:04:36;3.03;;;2.72;;
4909;SDS011;2470;49.868;8.660;2022-08-14T08:07:08;3.92;;;3.25;;
4909;SDS011;2470;49.868;8.660;2022-08-14T08:09:34;3.35;;;3.05;;
4909;SDS011;2470;49.868;8.660;2022-08-14T08:12:01;3.08;;;2.78;;
4909;SDS011;2470;49.868;8.660;2022-08-14T08:14:28;3.58;;;3.10;;
4909;SDS011;2470;49.868;8.660;2022-08-14T08:16:55;3.17;;;2.80;;
4909;SDS011;2470;49.868;8.660;2022-08-14T08:19:21;5.10;;;3.15;;
4909;SDS011;2470;49.868;8.660;2022-08-14T08:21:47;3.65;;;3.08;;
4909;SDS011;2470;49.868;8.660;2022-08-14T08:24:12;3.10;;;2.80;;
4909;SDS011;2470;49.868;8.660;2022-08-14T08:26:40;4.15;;;3.75;;
4909;SDS011;2470;49.868;8.660;2022-08-14T08:29:05;3.35;;;3.00;;
4909;SDS011;2470;49.868;8.660;2022-08-14T08:31:31;3.63;;;2.40;;
4909;SDS011;2470;49.868;8.660;2022-08-14T08:33:56;3.47;;;3.00;;
4909;SDS011;2470;49.868;8.660;2022-08-14T08:36:22;4.70;;;3.25;;
4909;SDS011;2470;49.868;8.660;2022-08-14T08:38:48;3.22;;;2.58;;
4909;SDS011;2470;49.868;8.660;2022-08-14T08:41:14;4.00;;;2.45;;
4909;SDS011;2470;49.868;8.660;2022-08-14T08:43:40;2.30;;;2.00;;
4909;SDS011;2470;49.868;8.660;2022-08-14T08:46:06;4.28;;;2.90;;
4909;SDS011;2470;49.868;8.660;2022-08-14T08:48:54;3.25;;;2.70;;
4909;SDS011;2470;49.868;8.660;2022-08-14T08:54:06;3.17;;;2.67;;
4909;SDS011;2470;49.868;8.660;2022-08-14T08:56:34;2.78;;;2.50;;
4909;SDS011;2470;49.868;8.660;2022-08-14T09:01:48;3.20;;;2.75;;
4909;SDS011;2470;49.868;8.660;2022-08-14T09:04:18;2.72;;;2.40;;
4909;SDS011;2470;49.868;8.660;2022-08-14T09:06:45;3.53;;;2.13;;
4909;SDS011;2470;49.868;8.660;2022-08-14T09:11:46;2.70;;;2.47;;
4909;SDS011;2470;49.868;8.660;2022-08-14T09:14:12;2.78;;;2.15;;
4909;SDS011;2470;49.868;8.660;2022-08-14T09:16:38;3.45;;;2.60;;
4909;SDS011;2470;49.868;8.660;2022-08-14T09:19:04;2.70;;;2.50;;
4909;SDS011;2470;49.868;8.660;2022-08-14T09:21:30;4.82;;;2.70;;
4909;SDS011;2470;49.868;8.660;2022-08-14T09:23:58;2.45;;;2.25;;
4909;SDS011;2470;49.868;8.660;2022-08-14T09:26:25;4.68;;;2.92;;
4909;SDS011;2470;49.868;8.660;2022-08-14T09:28:50;2.65;;;2.40;;
4909;SDS011;2470;49.868;8.660;2022-08-14T09:31:16;2.65;;;2.45;;
4909;SDS011;2470;49.868;8.660;2022-08-14T09:33:46;2.47;;;2.17;;
4909;SDS011;2470;49.868;8.660;2022-08-14T09:39:12;3.00;;;2.35;;
4909;SDS011;2470;49.868;8.660;2022-08-14T09:42:06;2.33;;;2.13;;
4909;SDS011;2470;49.868;8.660;2022-08-14T09:50:25;3.03;;;2.42;;
4909;SDS011;2470;49.868;8.660;2022-08-14T09:53:03;2.47;;;2.28;;
4909;SDS011;2470;49.868;8.660;2022-08-14T09:55:32;2.63;;;2.15;;
4909;SDS011;2470;49.868;8.660;2022-08-14T09:58:10;2.15;;;2.03;;
4909;SDS011;2470;49.868;8.660;2022-08-14T10:00:48;3.67;;;2.50;;
4909;SDS011;2470;49.868;8.660;2022-08-14T10:03:31;3.00;;;2.58;;
4909;SDS011;2470;49.868;8.660;2022-08-14T10:06:08;3.33;;;2.50;;
4909;SDS011;2470;49.868;8.660;2022-08-14T10:09:09;2.28;;;2.08;;
4909;SDS011;2470;49.868;8.660;2022-08-14T10:11:31;2.42;;;2.00;;
4909;SDS011;2470;49.868;8.660;2022-08-14T10:14:17;2.13;;;1.92;;
4909;SDS011;2470;49.868;8.660;2022-08-14T10:16:46;1.65;;;1.55;;
4909;SDS011;2470;49.868;8.660;2022-08-14T10:19:17;1.92;;;1.83;;
4909;SDS011;2470;49.868;8.660;2022-08-14T10:21:55;2.30;;;2.10;;
4909;SDS011;2470;49.868;8.660;2022-08-14T10:24:25;3.08;;;2.55;;
4909;SDS011;2470;49.868;8.660;2022-08-14T10:26:54;2.28;;;2.03;;
4909;SDS011;2470;49.868;8.660;2022-08-14T10:29:29;2.38;;;2.17;;
4909;SDS011;2470;49.868;8.660;2022-08-14T10:31:57;1.92;;;1.83;;
4909;SDS011;2470;49.868;8.660;2022-08-14T10:34:29;1.83;;;1.73;;
4909;SDS011;2470;49.868;8.660;2022-08-14T10:37:06;2.00;;;1.63;;
4909;SDS011;2470;49.868;8.660;2022-08-14T10:39:37;1.65;;;1.55;;
4909;SDS011;2470;49.868;8.660;2022-08-14T10:42:08;1.90;;;1.80;;
4909;SDS011;2470;49.868;8.660;2022-08-14T10:44:36;5.57;;;2.10;;
4909;SDS011;2470;49.868;8.660;2022-08-14T10:47:07;1.60;;;1.50;;
4909;SDS011;2470;49.868;8.660;2022-08-14T10:49:38;1.75;;;1.65;;
4909;SDS011;2470;49.868;8.660;2022-08-14T10:52:18;1.85;;;1.75;;
4909;SDS011;2470;49.868;8.660;2022-08-14T10:54:45;3.67;;;2.15;;
4909;SDS011;2470;49.868;8.660;2022-08-14T10:57:25;2.90;;;2.03;;
4909;SDS011;2470;49.868;8.660;2022-08-14T10:59:52;1.90;;;1.80;;
4909;SDS011;2470;49.868;8.660;2022-08-14T11:07:38;1.95;;;1.85;;
4909;SDS011;2470;49.868;8.660;2022-08-14T11:13:22;1.90;;;1.80;;
4909;SDS011;2470;49.868;8.660;2022-08-14T11:15:49;2.28;;;2.13;;
4909;SDS011;2470;49.868;8.660;2022-08-14T11:18:15;2.03;;;1.92;;
4909;SDS011;2470;49.868;8.660;2022-08-14T11:20:45;1.98;;;1.88;;
4909;SDS011;2470;49.868;8.660;2022-08-14T11:23:24;1.60;;;1.50;;
4909;SDS011;2470;49.868;8.660;2022-08-14T11:26:00;1.70;;;1.60;;
4909;SDS011;2470;49.868;8.660;2022-08-14T11:28:27;1.70;;;1.60;;
4909;SDS011;2470;49.868;8.660;2022-08-14T11:30:57;1.73;;;1.63;;
4909;SDS011;2470;49.868;8.660;2022-08-14T11:33:24;1.70;;;1.60;;
4909;SDS011;2470;49.868;8.660;2022-08-14T11:35:55;1.65;;;1.55;;
4909;SDS011;2470;49.868;8.660;2022-08-14T11:38:22;2.22;;;2.03;;
4909;SDS011;2470;49.868;8.660;2022-08-14T11:40:49;2.00;;;1.90;;
4909;SDS011;2470;49.868;8.660;2022-08-14T11:43:15;2.45;;;2.25;;
4909;SDS011;2470;49.868;8.660;2022-08-14T11:45:44;1.70;;;1.60;;
4909;SDS011;2470;49.868;8.660;2022-08-14T11:48:13;2.20;;;2.00;;
4909;SDS011;2470;49.868;8.660;2022-08-14T11:50:39;2.03;;;1.90;;
4909;SDS011;2470;49.868;8.660;2022-08-14T11:53:06;1.88;;;1.77;;
4909;SDS011;2470;49.868;8.660;2022-08-14T11:55:43;2.05;;;1.95;;
4909;SDS011;2470;49.868;8.660;2022-08-14T11:58:10;2.08;;;1.52;;
4909;SDS011;2470;49.868;8.660;2022-08-14T12:00:46;1.67;;;1.58;;
4909;SDS011;2470;49.868;8.660;2022-08-14T12:03:13;1.60;;;1.50;;
4909;SDS011;2470;49.868;8.660;2022-08-14T12:05:39;2.22;;;1.77;;
4909;SDS011;2470;49.868;8.660;2022-08-14T12:08:06;1.75;;;1.65;;
4909;SDS011;2470;49.868;8.660;2022-08-14T12:10:33;1.75;;;1.65;;
4909;SDS011;2470;49.868;8.660;2022-08-14T12:13:09;1.42;;;1.33;;
4909;SDS011;2470;49.868;8.660;2022-08-14T12:15:39;1.42;;;1.33;;
4909;SDS011;2470;49.868;8.660;2022-08-14T12:18:05;1.50;;;1.40;;
4909;SDS011;2470;49.868;8.660;2022-08-14T12:20:32;1.45;;;1.35;;
4909;SDS011;2470;49.868;8.660;2022-08-14T12:23:03;1.95;;;1.85;;
4909;SDS011;2470;49.868;8.660;2022-08-14T12:25:31;1.50;;;1.40;;
4909;SDS011;2470;49.868;8.660;2022-08-14T12:27:57;1.80;;;1.70;;
4909;SDS011;2470;49.868;8.660;2022-08-14T12:33:03;3.03;;;2.25;;
4909;SDS011;2470;49.868;8.660;2022-08-14T12:35:40;3.60;;;1.95;;
4909;SDS011;2470;49.868;8.660;2022-08-14T12:38:08;1.73;;;1.63;;
4909;SDS011;2470;49.868;8.660;2022-08-14T12:40:48;6.03;;;3.22;;
4909;SDS011;2470;49.868;8.660;2022-08-14T12:43:17;2.67;;;1.90;;
4909;SDS011;2470;49.868;8.660;2022-08-14T12:45:45;1.40;;;1.40;;
4909;SDS011;2470;49.868;8.660;2022-08-14T12:48:16;1.20;;;1.20;;
4909;SDS011;2470;49.868;8.660;2022-08-14T12:50:43;1.70;;;1.60;;
4909;SDS011;2470;49.868;8.660;2022-08-14T12:53:10;1.02;;;1.02;;
4909;SDS011;2470;49.868;8.660;2022-08-14T12:55:37;1.20;;;1.10;;
4909;SDS011;2470;49.868;8.660;2022-08-14T12:58:04;2.90;;;1.20;;
4909;SDS011;2470;49.868;8.660;2022-08-14T13:00:35;1.80;;;1.30;;
4909;SDS011;2470;49.868;8.660;2022-08-14T13:03:02;1.08;;;1.08;;
4909;SDS011;2470;49.868;8.660;2022-08-14T13:05:30;2.22;;;1.60;;
4909;SDS011;2470;49.868;8.660;2022-08-14T13:07:59;1.13;;;1.13;;
4909;SDS011;2470;49.868;8.660;2022-08-14T13:10:27;1.00;;;1.00;;
4909;SDS011;2470;49.868;8.660;2022-08-14T13:12:56;0.80;;;0.80;;
4909;SDS011;2470;49.868;8.660;2022-08-14T13:15:23;1.58;;;1.30;;
4909;SDS011;2470;49.868;8.660;2022-08-14T13:17:49;1.00;;;1.00;;
4909;SDS011;2470;49.868;8.660;2022-08-14T13:20:18;1.42;;;1.33;;
4909;SDS011;2470;49.868;8.660;2022-08-14T13:22:46;0.82;;;0.82;;
4909;SDS011;2470;49.868;8.660;2022-08-14T13:25:13;1.10;;;1.10;;
4909;SDS011;2470;49.868;8.660;2022-08-14T13:27:44;0.70;;;0.70;;
4909;SDS011;2470;49.868;8.660;2022-08-14T13:30:11;0.90;;;0.90;;
4909;SDS011;2470;49.868;8.660;2022-08-14T13:32:38;0.82;;;0.82;;
4909;SDS011;2470;49.868;8.660;2022-08-14T13:35:08;0.90;;;0.90;;
4909;SDS011;2470;49.868;8.660;2022-08-14T13:37:34;1.13;;;0.85;;
4909;SDS011;2470;49.868;8.660;2022-08-14T13:40:00;1.23;;;1.20;;
4909;SDS011;2470;49.868;8.660;2022-08-14T13:42:28;2.92;;;1.10;;
4909;SDS011;2470;49.868;8.660;2022-08-14T13:44:55;3.40;;;2.42;;
4909;SDS011;2470;49.868;8.660;2022-08-14T13:47:21;0.93;;;0.93;;
4909;SDS011;2470;49.868;8.660;2022-08-14T13:49:49;1.00;;;1.00;;
4909;SDS011;2470;49.868;8.660;2022-08-14T13:52:17;1.10;;;1.10;;
4909;SDS011;2470;49.868;8.660;2022-08-14T13:54:44;0.88;;;0.88;;
4909;SDS011;2470;49.868;8.660;2022-08-14T13:57:12;0.85;;;0.85;;
4909;SDS011;2470;49.868;8.660;2022-08-14T13:59:43;0.85;;;0.85;;
4909;SDS011;2470;49.868;8.660;2022-08-14T14:02:10;1.00;;;1.00;;
4909;SDS011;2470;49.868;8.660;2022-08-14T14:04:40;0.80;;;0.80;;
4909;SDS011;2470;49.868;8.660;2022-08-14T14:07:11;0.70;;;0.70;;
4909;SDS011;2470;49.868;8.660;2022-08-14T14:09:41;1.33;;;0.77;;
4909;SDS011;2470;49.868;8.660;2022-08-14T14:12:09;0.85;;;0.85;;
4909;SDS011;2470;49.868;8.660;2022-08-14T14:14:40;0.70;;;0.70;;
4909;SDS011;2470;49.868;8.660;2022-08-14T14:17:08;0.80;;;0.80;;
4909;SDS011;2470;49.868;8.660;2022-08-14T14:19:39;0.70;;;0.70;;
4909;SDS011;2470;49.868;8.660;2022-08-14T14:22:07;0.80;;;0.80;;
4909;SDS011;2470;49.868;8.660;2022-08-14T14:24:33;0.80;;;0.80;;
4909;SDS011;2470;49.868;8.660;2022-08-14T14:27:00;0.80;;;0.80;;
4909;SDS011;2470;49.868;8.660;2022-08-14T14:29:31;0.82;;;0.82;;
4909;SDS011;2470;49.868;8.660;2022-08-14T14:31:59;0.90;;;0.90;;
4909;SDS011;2470;49.868;8.660;2022-08-14T14:34:26;0.70;;;0.70;;
4909;SDS011;2470;49.868;8.660;2022-08-14T14:36:53;3.03;;;1.00;;
4909;SDS011;2470;49.868;8.660;2022-08-14T14:39:20;0.90;;;0.90;;
4909;SDS011;2470;49.868;8.660;2022-08-14T14:41:50;0.82;;;0.82;;
4909;SDS011;2470;49.868;8.660;2022-08-14T14:44:16;0.70;;;0.70;;
4909;SDS011;2470;49.868;8.660;2022-08-14T14:46:56;0.73;;;0.73;;
4909;SDS011;2470;49.868;8.660;2022-08-14T14:49:26;0.77;;;0.77;;
4909;SDS011;2470;49.868;8.660;2022-08-14T14:51:53;0.90;;;0.90;;
4909;SDS011;2470;49.868;8.660;2022-08-14T14:54:20;0.90;;;0.90;;
4909;SDS011;2470;49.868;8.660;2022-08-14T14:56:47;0.88;;;0.82;;
4909;SDS011;2470;49.868;8.660;2022-08-14T14:59:13;0.90;;;0.90;;
4909;SDS011;2470;49.868;8.660;2022-08-14T15:01:39;0.75;;;0.75;;
4909;SDS011;2470;49.868;8.660;2022-08-14T15:04:07;0.90;;;0.90;;
4909;SDS011;2470;49.868;8.660;2022-08-14T15:06:33;0.93;;;0.93;;
4909;SDS011;2470;49.868;8.660;2022-08-14T15:09:00;1.30;;;1.10;;
4909;SDS011;2470;49.868;8.660;2022-08-14T15:11:26;1.10;;;1.10;;
4909;SDS011;2470;49.868;8.660;2022-08-14T15:13:52;1.25;;;1.20;;
4909;SDS011;2470;49.868;8.660;2022-08-14T15:16:18;1.70;;;1.60;;
4909;SDS011;2470;49.868;8.660;2022-08-14T15:18:44;1.75;;;1.65;;
4909;SDS011;2470;49.868;8.660;2022-08-14T15:21:10;2.05;;;1.35;;
4909;SDS011;2470;49.868;8.660;2022-08-14T15:23:36;1.20;;;1.20;;
4909;SDS011;2470;49.868;8.660;2022-08-14T15:26:02;1.48;;;1.48;;
4909;SDS011;2470;49.868;8.660;2022-08-14T15:28:29;1.10;;;1.10;;
4909;SDS011;2470;49.868;8.660;2022-08-14T15:30:57;1.27;;;1.23;;
4909;SDS011;2470;49.868;8.660;2022-08-14T15:33:22;2.42;;;1.48;;
4909;SDS011;2470;49.868;8.660;2022-08-14T15:36:07;1.80;;;1.70;;
4909;SDS011;2470;49.868;8.660;2022-08-14T15:38:34;1.83;;;1.60;;
4909;SDS011;2470;49.868;8.660;2022-08-14T15:40:59;1.60;;;1.50;;
4909;SDS011;2470;49.868;8.660;2022-08-14T15:43:26;1.90;;;1.80;;
4909;SDS011;2470;49.868;8.660;2022-08-14T15:45:52;1.77;;;1.67;;
4909;SDS011;2470;49.868;8.660;2022-08-14T15:48:18;1.80;;;1.70;;
4909;SDS011;2470;49.868;8.660;2022-08-14T15:50:44;1.50;;;1.40;;
4909;SDS011;2470;49.868;8.660;2022-08-14T15:53:10;2.85;;;1.90;;